Time;durP1;ratioP1;P1;durP2;ratioP2;P2;SDS_P1;SDS_P2;PMS_P1;PMS_P2;Temp;Humidity;BMP_temperature;BMP_pressure;BME280_temperature;BME280_humidity;BME280_pressure;Samples;Min_cycle;Max_cycle;Signal;HPM_P1;HPM_P2
2024/01/17 00:01:23;;;;;;;4.40;2.75;;;;;;;;;;5050506;28;20647;-67
2024/01/17 00:03:49;;;;;;;5.90;2.83;;;;;;;;;;5050658;28;20029;-69
2024/01/17 00:06:14;;;;;;;7.30;3.45;;;;;;;;;;5050126;28;20080;-67
2024/01/17 00:08:39;;;;;;;6.72;3.28;;;;;;;;;;5050373;28;20047;-67
2024/01/17 00:11:05;;;;;;;6.03;3.20;;;;;;;;;;5049772;28;20072;-67
2024/01/17 00:13:30;;;;;;;6.28;2.60;;;;;;;;;;5050561;28;20072;-67
2024/01/17 00:15:55;;;;;;;17.20;3.83;;;;;;;;;;5048901;28;20045;-66
2024/01/17 00:18:21;;;;;;;4.95;2.78;;;;;;;;;;5049959;28;20029;-67
2024/01/17 00:20:46;;;;;;;4.07;3.05;;;;;;;;;;5048678;28;20037;-68
2024/01/17 00:23:11;;;;;;;7.63;3.22;;;;;;;;;;5050453;28;20033;-66
2024/01/17 00:25:37;;;;;;;4.88;2.90;;;;;;;;;;5050204;28;20561;-67
2024/01/17 00:28:03;;;;;;;7.45;3.25;;;;;;;;;;5050244;28;20435;-68
2024/01/17 00:30:29;;;;;;;7.70;3.22;;;;;;;;;;5049932;28;20128;-68
2024/01/17 00:32:54;;;;;;;12.20;4.15;;;;;;;;;;5049880;28;20104;-67
2024/01/17 00:35:19;;;;;;;5.78;2.47;;;;;;;;;;5049804;28;20037;-66
2024/01/17 00:37:45;;;;;;;6.25;3.45;;;;;;;;;;5050175;28;20040;-68
2024/01/17 00:40:11;;;;;;;5.85;2.92;;;;;;;;;;5049990;28;20029;-67
2024/01/17 00:42:36;;;;;;;5.32;3.30;;;;;;;;;;5050243;28;20043;-67
2024/01/17 00:45:03;;;;;;;6.20;3.35;;;;;;;;;;5049891;28;20037;-67
2024/01/17 00:47:29;;;;;;;7.53;3.67;;;;;;;;;;5049972;28;20075;-67
2024/01/17 00:49:54;;;;;;;11.48;3.45;;;;;;;;;;5050014;28;20041;-66
2024/01/17 00:52:19;;;;;;;5.40;3.08;;;;;;;;;;5049964;28;20075;-67
2024/01/17 00:54:45;;;;;;;6.95;3.83;;;;;;;;;;5049728;28;20062;-68
2024/01/17 00:57:10;;;;;;;5.10;3.22;;;;;;;;;;5049673;28;20060;-67
2024/01/17 00:59:35;;;;;;;8.18;2.50;;;;;;;;;;5049634;28;20036;-68
2024/01/17 01:02:02;;;;;;;4.50;2.60;;;;;;;;;;5050260;28;20056;-68
2024/01/17 01:04:27;;;;;;;7.20;3.20;;;;;;;;;;5049842;28;20041;-66
2024/01/17 01:06:53;;;;;;;5.57;3.05;;;;;;;;;;5049480;28;20538;-67
2024/01/17 01:09:18;;;;;;;6.28;2.75;;;;;;;;;;5050982;28;20086;-67
2024/01/17 01:11:43;;;;;;;7.80;3.25;;;;;;;;;;5053920;28;20037;-67
2024/01/17 01:14:09;;;;;;;5.95;3.10;;;;;;;;;;5053646;28;20094;-67
2024/01/17 01:16:34;;;;;;;4.90;2.78;;;;;;;;;;5085971;28;20045;-67
2024/01/17 01:18:59;;;;;;;10.02;2.50;;;;;;;;;;5053396;28;20064;-67
2024/01/17 01:21:25;;;;;;;4.82;2.70;;;;;;;;;;5053212;28;20669;-67
2024/01/17 01:23:50;;;;;;;10.30;2.65;;;;;;;;;;5053728;28;20032;-66
2024/01/17 01:26:15;;;;;;;8.55;2.55;;;;;;;;;;5053646;28;20177;-67
2024/01/17 01:28:41;;;;;;;3.22;1.98;;;;;;;;;;5053870;28;20555;-67
2024/01/17 01:31:09;;;;;;;5.35;2.35;;;;;;;;;;5053282;28;20521;-68
2024/01/17 01:33:35;;;;;;;6.70;3.38;;;;;;;;;;5052332;28;20029;-66
2024/01/17 01:36:00;;;;;;;12.10;3.15;;;;;;;;;;5053181;28;20070;-67
2024/01/17 01:38:25;;;;;;;6.82;2.58;;;;;;;;;;5053058;28;20481;-67
2024/01/17 01:40:51;;;;;;;3.55;1.90;;;;;;;;;;5053102;28;20558;-67
2024/01/17 01:43:18;;;;;;;4.43;2.55;;;;;;;;;;5053266;28;20037;-67
2024/01/17 01:45:44;;;;;;;3.38;2.15;;;;;;;;;;5052815;28;20063;-66
2024/01/17 01:48:10;;;;;;;4.45;2.20;;;;;;;;;;5085246;28;20053;-67
2024/01/17 01:50:35;;;;;;;7.00;2.40;;;;;;;;;;5053048;28;20029;-68
2024/01/17 01:53:00;;;;;;;3.95;2.15;;;;;;;;;;5052631;28;20120;-66
2024/01/17 01:55:26;;;;;;;4.13;2.38;;;;;;;;;;5050862;28;20036;-66
2024/01/17 01:57:51;;;;;;;3.25;2.00;;;;;;;;;;5051593;28;20076;-67
2024/01/17 02:00:17;;;;;;;5.35;2.63;;;;;;;;;;5052473;28;20033;-67
2024/01/17 02:02:44;;;;;;;6.22;2.38;;;;;;;;;;5085190;28;20041;-68
2024/01/17 02:05:09;;;;;;;5.43;3.08;;;;;;;;;;5052485;28;20449;-67
2024/01/17 02:07:35;;;;;;;7.78;2.05;;;;;;;;;;5052186;28;20111;-67
2024/01/17 02:10:01;;;;;;;3.45;1.98;;;;;;;;;;5050859;28;20043;-67
2024/01/17 02:12:27;;;;;;;9.23;2.38;;;;;;;;;;5052629;28;20048;-67
2024/01/17 02:14:52;;;;;;;4.30;2.65;;;;;;;;;;5048111;28;20407;-67
2024/01/17 02:17:17;;;;;;;10.60;2.30;;;;;;;;;;5067816;28;20041;-65
2024/01/17 02:19:43;;;;;;;5.82;2.50;;;;;;;;;;5050270;28;20124;-67
2024/01/17 02:22:08;;;;;;;5.68;1.98;;;;;;;;;;5052507;28;20111;-66
2024/01/17 02:24:34;;;;;;;9.05;1.92;;;;;;;;;;5051761;28;20133;-66
2024/01/17 02:26:59;;;;;;;4.18;1.90;;;;;;;;;;5052389;28;20039;-67
2024/01/17 02:29:26;;;;;;;9.13;2.47;;;;;;;;;;5058513;28;20021;-67
2024/01/17 02:31:51;;;;;;;11.90;3.13;;;;;;;;;;5052376;28;20066;-68
2024/01/17 02:34:17;;;;;;;7.30;3.00;;;;;;;;;;5052031;28;20033;-69
2024/01/17 02:36:42;;;;;;;5.45;2.38;;;;;;;;;;5084220;28;20103;-68
2024/01/17 02:39:09;;;;;;;4.88;1.90;;;;;;;;;;5051672;28;20048;-67
2024/01/17 02:41:34;;;;;;;4.72;2.28;;;;;;;;;;5050545;28;20037;-67
2024/01/17 02:44:00;;;;;;;8.00;1.90;;;;;;;;;;5051806;28;20028;-67
2024/01/17 02:46:27;;;;;;;4.35;2.20;;;;;;;;;;5051419;28;20614;-67
2024/01/17 02:48:52;;;;;;;6.78;2.75;;;;;;;;;;5050417;28;20094;-67
2024/01/17 02:51:18;;;;;;;5.68;2.10;;;;;;;;;;5051524;28;20119;-67
2024/01/17 02:53:43;;;;;;;2.92;1.80;;;;;;;;;;5051770;28;20120;-68
2024/01/17 02:56:08;;;;;;;3.97;1.95;;;;;;;;;;5051095;28;20122;-67
2024/01/17 02:58:34;;;;;;;3.53;2.13;;;;;;;;;;5051703;28;20025;-67
2024/01/17 03:00:59;;;;;;;5.00;2.05;;;;;;;;;;5050623;28;20471;-68
2024/01/17 03:03:24;;;;;;;2.97;1.80;;;;;;;;;;5051622;28;20060;-67
2024/01/17 03:05:50;;;;;;;4.63;1.80;;;;;;;;;;5051223;28;20037;-66
2024/01/17 03:08:15;;;;;;;4.38;2.28;;;;;;;;;;5051075;28;20531;-66
2024/01/17 03:10:40;;;;;;;4.88;2.03;;;;;;;;;;5050766;28;20041;-67
2024/01/17 03:13:07;;;;;;;4.82;2.97;;;;;;;;;;5051660;28;20511;-67
2024/01/17 03:15:34;;;;;;;5.28;2.28;;;;;;;;;;5050996;28;20036;-68
2024/01/17 03:18:00;;;;;;;3.17;1.83;;;;;;;;;;5050146;28;20063;-66
2024/01/17 03:20:25;;;;;;;3.80;2.22;;;;;;;;;;5051101;28;20060;-66
2024/01/17 03:22:54;;;;;;;3.40;1.55;;;;;;;;;;5051160;28;20037;-66
2024/01/17 03:25:19;;;;;;;3.97;2.10;;;;;;;;;;5050907;28;20075;-66
2024/01/17 03:27:45;;;;;;;6.60;2.10;;;;;;;;;;5050799;28;20103;-67
2024/01/17 03:30:11;;;;;;;5.30;2.45;;;;;;;;;;5050390;28;20063;-68
2024/01/17 03:32:36;;;;;;;7.47;2.03;;;;;;;;;;5050527;28;20037;-67
2024/01/17 03:35:02;;;;;;;4.95;2.50;;;;;;;;;;5082692;28;20036;-66
2024/01/17 03:37:27;;;;;;;2.97;1.83;;;;;;;;;;5050764;28;20080;-67
2024/01/17 03:39:53;;;;;;;8.10;2.65;;;;;;;;;;5038007;28;20029;-68
2024/01/17 03:42:18;;;;;;;4.00;2.00;;;;;;;;;;5050829;28;20032;-67
2024/01/17 03:44:44;;;;;;;12.07;2.25;;;;;;;;;;5050317;28;20177;-67
2024/01/17 03:47:10;;;;;;;3.55;1.95;;;;;;;;;;5050206;28;20048;-66
2024/01/17 03:49:36;;;;;;;8.68;2.55;;;;;;;;;;5050520;28;20346;-67
2024/01/17 03:52:01;;;;;;;6.15;2.65;;;;;;;;;;5049759;28;20048;-67
2024/01/17 03:54:26;;;;;;;5.05;2.28;;;;;;;;;;5049776;28;20068;-68
2024/01/17 03:56:52;;;;;;;6.10;2.17;;;;;;;;;;5050641;28;20041;-68
2024/01/17 03:59:17;;;;;;;10.75;2.30;;;;;;;;;;5050240;28;20427;-69
2024/01/17 04:01:43;;;;;;;3.67;1.52;;;;;;;;;;5050368;28;20029;-67
2024/01/17 04:04:10;;;;;;;3.60;1.65;;;;;;;;;;5048652;28;20032;-66
2024/01/17 04:06:35;;;;;;;5.15;1.90;;;;;;;;;;5048315;28;20082;-67
2024/01/17 04:09:00;;;;;;;4.25;2.15;;;;;;;;;;5050384;28;20036;-67
2024/01/17 04:11:26;;;;;;;10.80;2.50;;;;;;;;;;5050010;28;21215;-66
2024/01/17 04:13:51;;;;;;;3.15;1.60;;;;;;;;;;5050448;28;20052;-68
2024/01/17 04:16:17;;;;;;;5.45;2.75;;;;;;;;;;5049614;28;20037;-66
2024/01/17 04:18:43;;;;;;;4.03;1.75;;;;;;;;;;5049461;28;20029;-67
2024/01/17 04:21:09;;;;;;;2.90;2.13;;;;;;;;;;5048594;28;20067;-67
2024/01/17 04:23:34;;;;;;;8.27;1.65;;;;;;;;;;5049183;28;20443;-68
2024/01/17 04:25:59;;;;;;;3.58;1.85;;;;;;;;;;5049987;28;20388;-67
2024/01/17 04:28:25;;;;;;;4.13;1.90;;;;;;;;;;5052885;28;20041;-67
2024/01/17 04:30:50;;;;;;;5.65;1.70;;;;;;;;;;5049450;28;20043;-67
2024/01/17 04:33:16;;;;;;;5.13;1.63;;;;;;;;;;5049646;28;20056;-67
2024/01/17 04:35:41;;;;;;;2.90;1.55;;;;;;;;;;5049481;28;20091;-67
2024/01/17 04:38:07;;;;;;;6.88;2.40;;;;;;;;;;5049782;28;20032;-67
2024/01/17 04:40:32;;;;;;;2.25;1.52;;;;;;;;;;5049440;28;20032;-66
2024/01/17 04:42:57;;;;;;;2.92;1.77;;;;;;;;;;5049015;28;20056;-66
2024/01/17 04:45:23;;;;;;;3.03;1.50;;;;;;;;;;5049463;28;20120;-66
2024/01/17 04:47:48;;;;;;;3.90;1.50;;;;;;;;;;5048316;28;20065;-67
2024/01/17 04:50:14;;;;;;;5.80;1.77;;;;;;;;;;5049557;28;20048;-67
2024/01/17 04:52:39;;;;;;;15.98;1.90;;;;;;;;;;5049378;28;20442;-67
2024/01/17 04:55:07;;;;;;;2.40;1.65;;;;;;;;;;5081506;28;20037;-67
2024/01/17 04:57:33;;;;;;;6.78;2.33;;;;;;;;;;5043675;28;20045;-67
2024/01/17 04:59:58;;;;;;;3.15;2.08;;;;;;;;;;5049430;28;20533;-66
2024/01/17 05:02:23;;;;;;;2.80;1.60;;;;;;;;;;5049713;28;20028;-67
2024/01/17 05:04:49;;;;;;;4.65;1.33;;;;;;;;;;5049530;28;20033;-67
2024/01/17 05:07:15;;;;;;;6.68;2.10;;;;;;;;;;5049673;28;20045;-68
2024/01/17 05:09:40;;;;;;;3.40;1.60;;;;;;;;;;5049082;28;20036;-68
2024/01/17 05:12:06;;;;;;;10.63;1.58;;;;;;;;;;5049406;28;20531;-66
2024/01/17 05:14:31;;;;;;;2.58;1.55;;;;;;;;;;5049207;28;20033;-68
2024/01/17 05:16:56;;;;;;;1.83;1.10;;;;;;;;;;5049267;28;20158;-67
2024/01/17 05:19:22;;;;;;;2.58;1.40;;;;;;;;;;5042973;28;20068;-67
2024/01/17 05:21:47;;;;;;;3.17;1.83;;;;;;;;;;5049757;28;20087;-67
2024/01/17 05:24:13;;;;;;;3.42;1.80;;;;;;;;;;5049419;28;20382;-67
2024/01/17 05:26:38;;;;;;;5.25;2.13;;;;;;;;;;5048644;28;20037;-66
2024/01/17 05:29:03;;;;;;;2.72;1.42;;;;;;;;;;5047959;28;20733;-67
2024/01/17 05:31:29;;;;;;;4.38;1.52;;;;;;;;;;5049015;28;20044;-66
2024/01/17 05:33:54;;;;;;;2.42;1.45;;;;;;;;;;5049501;28;20045;-67
2024/01/17 05:36:19;;;;;;;3.47;1.52;;;;;;;;;;5049167;28;20112;-67
2024/01/17 05:38:45;;;;;;;4.32;1.70;;;;;;;;;;5049194;28;20132;-67
2024/01/17 05:41:10;;;;;;;3.08;1.33;;;;;;;;;;5080953;28;20491;-66
2024/01/17 05:43:35;;;;;;;2.70;1.50;;;;;;;;;;5049695;28;20040;-67
2024/01/17 05:46:02;;;;;;;2.75;1.58;;;;;;;;;;5048446;28;20032;-67
2024/01/17 05:48:27;;;;;;;4.07;1.67;;;;;;;;;;5049035;28;20565;-67
2024/01/17 05:50:52;;;;;;;6.00;2.00;;;;;;;;;;5048749;28;20043;-67
2024/01/17 05:53:18;;;;;;;2.60;1.55;;;;;;;;;;5049162;28;20025;-67
2024/01/17 05:55:43;;;;;;;2.35;1.23;;;;;;;;;;5052068;28;20041;-66
2024/01/17 05:58:09;;;;;;;4.00;1.80;;;;;;;;;;5052987;28;20059;-66
2024/01/17 06:00:34;;;;;;;3.15;1.90;;;;;;;;;;5050690;28;20055;-66
2024/01/17 06:03:00;;;;;;;2.30;1.42;;;;;;;;;;5052488;28;20136;-67
2024/01/17 06:05:25;;;;;;;5.68;2.13;;;;;;;;;;5052273;28;20037;-67
2024/01/17 06:07:51;;;;;;;4.80;2.03;;;;;;;;;;5052908;28;20031;-67
2024/01/17 06:10:17;;;;;;;4.05;1.52;;;;;;;;;;5052557;28;20041;-68
2024/01/17 06:12:42;;;;;;;4.60;2.00;;;;;;;;;;5052815;28;20048;-66
2024/01/17 06:15:09;;;;;;;1.80;1.20;;;;;;;;;;5052072;28;20519;-67
2024/01/17 06:17:34;;;;;;;4.47;2.08;;;;;;;;;;5051956;28;20033;-66
2024/01/17 06:19:59;;;;;;;2.67;1.83;;;;;;;;;;5051843;28;20044;-67
2024/01/17 06:22:26;;;;;;;3.42;1.88;;;;;;;;;;5052351;28;20028;-67
2024/01/17 06:24:51;;;;;;;2.90;1.63;;;;;;;;;;5052272;28;20049;-66
2024/01/17 06:27:17;;;;;;;5.15;1.77;;;;;;;;;;5052342;28;20033;-67
2024/01/17 06:29:43;;;;;;;9.50;1.90;;;;;;;;;;5057584;28;20037;-66
2024/01/17 06:32:08;;;;;;;2.67;1.55;;;;;;;;;;5052103;28;20063;-68
2024/01/17 06:34:33;;;;;;;2.28;1.42;;;;;;;;;;5051801;28;20504;-67
2024/01/17 06:36:59;;;;;;;2.47;1.48;;;;;;;;;;5051046;28;20032;-67
2024/01/17 06:39:25;;;;;;;3.85;1.80;;;;;;;;;;5040042;28;20400;-68
2024/01/17 06:41:50;;;;;;;3.42;1.45;;;;;;;;;;5052128;28;20119;-66
2024/01/17 06:44:15;;;;;;;3.63;2.00;;;;;;;;;;5052044;28;20091;-67
2024/01/17 06:46:41;;;;;;;4.20;1.73;;;;;;;;;;5051197;28;20036;-66
2024/01/17 06:49:06;;;;;;;3.92;1.55;;;;;;;;;;5051679;28;20400;-66
2024/01/17 06:51:32;;;;;;;4.07;1.55;;;;;;;;;;5051592;28;20025;-66
2024/01/17 06:53:57;;;;;;;3.58;1.75;;;;;;;;;;5051579;28;20072;-67
2024/01/17 06:56:22;;;;;;;3.22;1.60;;;;;;;;;;5049717;28;20052;-67
2024/01/17 06:58:48;;;;;;;3.65;1.70;;;;;;;;;;5052048;28;20059;-67
2024/01/17 07:01:13;;;;;;;6.93;1.95;;;;;;;;;;5051076;28;20423;-67
2024/01/17 07:03:39;;;;;;;7.45;1.80;;;;;;;;;;5051846;28;20523;-67
2024/01/17 07:06:05;;;;;;;2.33;1.30;;;;;;;;;;5050159;28;20067;-68
2024/01/17 07:08:30;;;;;;;3.90;1.85;;;;;;;;;;5051559;28;20047;-68
2024/01/17 07:10:55;;;;;;;5.75;1.73;;;;;;;;;;5051230;28;20028;-67
2024/01/17 07:13:20;;;;;;;3.38;1.67;;;;;;;;;;5051552;28;20032;-67
2024/01/17 07:15:46;;;;;;;3.83;1.15;;;;;;;;;;5051079;28;20036;-67
2024/01/17 07:18:11;;;;;;;2.58;1.27;;;;;;;;;;5050101;28;20098;-67
2024/01/17 07:20:37;;;;;;;3.63;1.85;;;;;;;;;;5051198;28;20028;-67
2024/01/17 07:23:02;;;;;;;4.47;1.65;;;;;;;;;;5046091;28;20052;-66
2024/01/17 07:25:28;;;;;;;2.55;1.40;;;;;;;;;;5048621;28;20110;-67
2024/01/17 07:27:53;;;;;;;1.85;1.17;;;;;;;;;;5052041;28;20404;-67
2024/01/17 07:30:19;;;;;;;3.72;1.52;;;;;;;;;;5051040;28;20069;-66
2024/01/17 07:32:45;;;;;;;6.88;1.90;;;;;;;;;;5050686;28;20040;-67
2024/01/17 07:35:10;;;;;;;2.40;1.13;;;;;;;;;;5049147;28;20416;-67
2024/01/17 07:37:36;;;;;;;2.28;1.40;;;;;;;;;;5051351;28;20428;-67
2024/01/17 07:40:02;;;;;;;2.22;1.25;;;;;;;;;;5050791;28;20075;-66
2024/01/17 07:42:27;;;;;;;4.50;1.70;;;;;;;;;;5050915;28;20481;-67
2024/01/17 07:44:53;;;;;;;3.65;1.77;;;;;;;;;;5082740;28;20043;-66
2024/01/17 07:47:18;;;;;;;2.72;1.50;;;;;;;;;;5050219;28;20037;-67
2024/01/17 07:49:45;;;;;;;2.97;1.30;;;;;;;;;;5050331;28;20101;-67
2024/01/17 07:52:10;;;;;;;7.72;1.95;;;;;;;;;;5050951;28;20045;-69
2024/01/17 07:54:36;;;;;;;4.53;1.70;;;;;;;;;;5050568;28;20037;-68
2024/01/17 07:57:02;;;;;;;2.88;1.35;;;;;;;;;;5050651;28;20045;-67
2024/01/17 07:59:30;;;;;;;1.60;0.90;;;;;;;;;;5050187;28;20043;-67
2024/01/17 08:01:56;;;;;;;6.35;1.15;;;;;;;;;;5050555;28;20036;-66
2024/01/17 08:04:21;;;;;;;3.42;1.67;;;;;;;;;;5049148;28;20036;-66
2024/01/17 08:06:47;;;;;;;3.35;1.20;;;;;;;;;;5049420;28;20036;-66
2024/01/17 08:09:22;;;;;;;4.57;1.65;;;;;;;;;;5050303;28;20485;-68
2024/01/17 08:11:52;;;;;;;4.80;1.60;;;;;;;;;;5080111;28;20484;-67
2024/01/17 08:14:17;;;;;;;5.03;1.52;;;;;;;;;;5050403;28;20095;-68
2024/01/17 08:16:44;;;;;;;3.08;1.10;;;;;;;;;;5082296;28;20028;-67
2024/01/17 08:19:10;;;;;;;5.22;1.58;;;;;;;;;;5048728;28;20056;-66
2024/01/17 08:21:36;;;;;;;5.55;1.55;;;;;;;;;;5078841;28;20080;-67
2024/01/17 08:24:01;;;;;;;8.75;1.58;;;;;;;;;;5049521;28;20037;-66
2024/01/17 08:26:26;;;;;;;2.03;1.13;;;;;;;;;;5049841;28;20033;-67
2024/01/17 08:28:52;;;;;;;2.90;1.25;;;;;;;;;;5058613;28;20048;-66
2024/01/17 08:31:17;;;;;;;7.97;1.77;;;;;;;;;;5049631;28;20032;-68
2024/01/17 08:33:43;;;;;;;6.10;2.03;;;;;;;;;;5049910;28;20056;-67
2024/01/17 08:36:08;;;;;;;2.42;1.42;;;;;;;;;;5049491;28;20048;-67
2024/01/17 08:38:35;;;;;;;8.52;1.67;;;;;;;;;;5050276;28;20033;-68
2024/01/17 08:41:00;;;;;;;5.47;1.45;;;;;;;;;;5049899;28;20033;-66
2024/01/17 08:43:25;;;;;;;6.07;1.75;;;;;;;;;;5050247;28;20036;-67
2024/01/17 08:45:51;;;;;;;2.53;1.10;;;;;;;;;;5081852;28;20116;-66
2024/01/17 08:48:16;;;;;;;4.20;2.05;;;;;;;;;;5048933;28;20082;-67
2024/01/17 08:50:41;;;;;;;3.10;1.70;;;;;;;;;;5048958;28;20068;-67
2024/01/17 08:53:07;;;;;;;4.20;1.75;;;;;;;;;;5049958;28;20032;-66
2024/01/17 08:55:32;;;;;;;3.85;1.40;;;;;;;;;;5049930;28;20029;-67
2024/01/17 08:57:57;;;;;;;9.27;2.05;;;;;;;;;;5049499;28;20635;-67
2024/01/17 09:00:23;;;;;;;2.42;1.40;;;;;;;;;;5049745;28;20551;-67
2024/01/17 09:02:48;;;;;;;4.20;1.65;;;;;;;;;;5048791;28;20033;-66
2024/01/17 09:05:13;;;;;;;8.60;2.28;;;;;;;;;;5049714;28;20120;-68
2024/01/17 09:07:43;;;;;;;2.47;1.40;;;;;;;;;;5049279;28;20112;-66
2024/01/17 09:10:09;;;;;;;3.45;1.90;;;;;;;;;;5048783;28;20440;-67
2024/01/17 09:12:34;;;;;;;5.45;2.20;;;;;;;;;;5049356;28;20033;-66
2024/01/17 09:14:59;;;;;;;4.38;1.98;;;;;;;;;;5049457;28;20098;-67
2024/01/17 09:17:25;;;;;;;4.38;1.83;;;;;;;;;;5049464;28;20071;-67
2024/01/17 09:19:50;;;;;;;3.85;1.35;;;;;;;;;;5037904;28;20091;-67
2024/01/17 09:22:15;;;;;;;7.18;2.30;;;;;;;;;;5048781;28;20649;-67
2024/01/17 09:24:41;;;;;;;3.17;1.40;;;;;;;;;;5048839;28;20112;-67
2024/01/17 09:27:06;;;;;;;4.20;1.63;;;;;;;;;;5048392;28;20037;-67
2024/01/17 09:29:33;;;;;;;4.38;1.80;;;;;;;;;;5082563;28;20032;-66
2024/01/17 09:32:00;;;;;;;5.30;2.10;;;;;;;;;;5052527;28;20035;-67
2024/01/17 09:34:27;;;;;;;4.70;1.85;;;;;;;;;;5051664;28;20072;-67
2024/01/17 09:36:52;;;;;;;6.68;2.05;;;;;;;;;;5052604;28;20035;-67
2024/01/17 09:39:18;;;;;;;3.47;1.48;;;;;;;;;;5052502;28;20040;-68
2024/01/17 09:41:43;;;;;;;4.93;1.65;;;;;;;;;;5052255;28;20033;-68
2024/01/17 09:44:09;;;;;;;7.68;1.92;;;;;;;;;;5067511;28;20063;-67
2024/01/17 09:46:37;;;;;;;5.18;1.77;;;;;;;;;;5052362;28;20040;-67
2024/01/17 09:49:02;;;;;;;3.58;1.80;;;;;;;;;;5050319;28;20041;-66
2024/01/17 09:51:32;;;;;;;3.15;1.75;;;;;;;;;;5052113;28;20036;-66
2024/01/17 09:53:59;;;;;;;4.45;1.70;;;;;;;;;;5042775;28;20028;-69
2024/01/17 09:56:27;;;;;;;4.07;1.90;;;;;;;;;;5048455;28;20044;-68
2024/01/17 09:58:54;;;;;;;6.22;2.08;;;;;;;;;;5050516;28;20025;-66
2024/01/17 10:01:20;;;;;;;6.35;2.58;;;;;;;;;;5048948;28;20064;-67
2024/01/17 10:03:46;;;;;;;3.53;1.80;;;;;;;;;;5083544;28;20054;-69
2024/01/17 10:06:12;;;;;;;5.13;2.70;;;;;;;;;;5050015;28;20033;-67
2024/01/17 10:08:37;;;;;;;6.07;2.70;;;;;;;;;;5084075;28;20076;-67
2024/01/17 10:11:03;;;;;;;10.05;3.67;;;;;;;;;;5049929;28;20044;-69
2024/01/17 10:13:29;;;;;;;8.20;3.35;;;;;;;;;;5047796;28;20040;-67
2024/01/17 10:15:54;;;;;;;5.18;2.25;;;;;;;;;;5049017;28;20025;-69
2024/01/17 10:18:20;;;;;;;6.35;3.47;;;;;;;;;;5049973;28;20041;-67
2024/01/17 10:20:45;;;;;;;7.45;3.60;;;;;;;;;;5052268;28;20437;-66
2024/01/17 10:23:12;;;;;;;8.77;4.10;;;;;;;;;;5051739;28;20040;-67
2024/01/17 10:25:41;;;;;;;8.65;3.03;;;;;;;;;;5050463;28;20170;-66
2024/01/17 10:28:07;;;;;;;6.22;3.63;;;;;;;;;;5052163;28;20064;-66
2024/01/17 10:30:33;;;;;;;3.72;2.40;;;;;;;;;;5052362;28;20682;-66
2024/01/17 10:32:58;;;;;;;6.85;3.33;;;;;;;;;;5052133;28;20048;-67
2024/01/17 10:35:24;;;;;;;6.47;3.30;;;;;;;;;;5051980;28;20029;-67
2024/01/17 10:37:53;;;;;;;4.85;2.95;;;;;;;;;;5084137;28;20068;-67
2024/01/17 10:40:19;;;;;;;5.80;3.67;;;;;;;;;;5050617;28;20051;-67
2024/01/17 10:42:44;;;;;;;9.35;4.18;;;;;;;;;;5051773;28;20037;-67
2024/01/17 10:45:23;;;;;;;7.90;3.88;;;;;;;;;;5051828;28;20099;-67
2024/01/17 10:47:48;;;;;;;5.22;3.15;;;;;;;;;;5049770;28;20044;-67
2024/01/17 10:50:17;;;;;;;4.80;2.75;;;;;;;;;;5050546;28;20033;-67
2024/01/17 10:52:43;;;;;;;9.07;3.72;;;;;;;;;;5050341;28;20041;-67
2024/01/17 10:55:10;;;;;;;8.25;3.78;;;;;;;;;;5052027;28;20063;-68
2024/01/17 10:57:40;;;;;;;9.52;4.13;;;;;;;;;;5051451;28;20053;-69
2024/01/17 11:00:16;;;;;;;11.48;3.70;;;;;;;;;;5051923;28;20076;-67
2024/01/17 11:02:42;;;;;;;7.95;4.43;;;;;;;;;;5042169;28;20037;-67
2024/01/17 11:05:11;;;;;;;11.00;4.05;;;;;;;;;;5044043;28;20434;-68
2024/01/17 11:07:37;;;;;;;8.60;3.22;;;;;;;;;;5044063;28;20082;-67
2024/01/17 11:10:03;;;;;;;12.75;4.03;;;;;;;;;;5079334;28;20040;-67
2024/01/17 11:12:31;;;;;;;7.00;4.43;;;;;;;;;;5049262;28;20136;-67
2024/01/17 11:15:03;;;;;;;9.27;3.33;;;;;;;;;;5045074;28;20137;-67
2024/01/17 11:17:31;;;;;;;8.02;4.50;;;;;;;;;;5050177;28;20044;-68
2024/01/17 11:19:57;;;;;;;7.63;3.90;;;;;;;;;;5048643;28;20077;-67
2024/01/17 11:22:23;;;;;;;7.28;4.15;;;;;;;;;;5048387;28;20040;-67
2024/01/17 11:25:02;;;;;;;9.18;4.60;;;;;;;;;;5050554;28;20087;-68
2024/01/17 11:27:41;;;;;;;85.80;12.32;;;;;;;;;;5082225;28;20095;-66
2024/01/17 11:30:25;;;;;;;8.38;5.57;;;;;;;;;;5049648;28;20037;-67
2024/01/17 11:32:53;;;;;;;;;;;;;;;;;;5041877;28;20440;-68
2024/01/17 11:35:44;;;;;;;6.03;3.65;;;;;;;;;;5030940;28;19931;-67
2024/01/17 11:38:24;;;;;;;4.30;2.45;;;;;;;;;;5077330;28;20175;-68
2024/01/17 11:40:53;;;;;;;8.25;4.80;;;;;;;;;;5045814;28;20025;-68
2024/01/17 11:43:19;;;;;;;7.93;4.20;;;;;;;;;;5077644;28;20402;-68
2024/01/17 11:45:47;;;;;;;6.72;3.30;;;;;;;;;;5077900;28;20033;-68
2024/01/17 11:48:25;;;;;;;6.85;4.15;;;;;;;;;;5045355;28;20488;-67
2024/01/17 11:51:08;;;;;;;7.03;3.78;;;;;;;;;;5031872;28;20040;-69
2024/01/17 11:53:36;;;;;;;7.65;4.07;;;;;;;;;;5045040;28;20037;-67
2024/01/17 11:56:03;;;;;;;9.20;5.10;;;;;;;;;;5043676;28;20461;-67
2024/01/17 11:58:40;;;;;;;7.20;3.92;;;;;;;;;;5074975;28;20029;-68
2024/01/17 12:01:07;;;;;;;5.20;3.55;;;;;;;;;;5037319;28;20043;-68
2024/01/17 12:03:33;;;;;;;7.35;4.18;;;;;;;;;;5045803;28;20033;-68
2024/01/17 12:06:00;;;;;;;7.10;4.07;;;;;;;;;;5077864;28;20092;-67
2024/01/17 12:08:26;;;;;;;6.53;3.72;;;;;;;;;;5046121;28;20048;-67
2024/01/17 12:10:56;;;;;;;7.80;4.25;;;;;;;;;;5045054;28;20040;-67
2024/01/17 12:13:23;;;;;;;6.75;3.72;;;;;;;;;;5044734;28;20032;-66
2024/01/17 12:15:51;;;;;;;6.47;3.83;;;;;;;;;;5043382;28;20044;-67
2024/01/17 12:18:24;;;;;;;6.65;4.18;;;;;;;;;;5044105;28;20065;-68
2024/01/17 12:20:56;;;;;;;7.63;4.17;;;;;;;;;;5044243;28;20495;-69
2024/01/17 12:23:24;;;;;;;5.20;2.78;;;;;;;;;;5045709;28;20032;-67
2024/01/17 12:25:50;;;;;;;4.53;3.10;;;;;;;;;;5044289;28;20520;-67
2024/01/17 12:28:23;;;;;;;6.75;3.83;;;;;;;;;;5044581;28;20075;-67
2024/01/17 12:30:54;;;;;;;3.33;2.20;;;;;;;;;;5044803;28;20123;-67
2024/01/17 12:33:20;;;;;;;5.72;3.75;;;;;;;;;;5045080;28;20082;-68
2024/01/17 12:35:45;;;;;;;6.82;3.35;;;;;;;;;;5043106;28;20481;-70
2024/01/17 12:38:10;;;;;;;5.45;3.28;;;;;;;;;;5045241;28;20039;-66
2024/01/17 12:40:36;;;;;;;5.80;3.08;;;;;;;;;;5076881;28;20039;-68
2024/01/17 12:43:03;;;;;;;8.38;3.30;;;;;;;;;;5043479;28;20041;-67
2024/01/17 12:45:28;;;;;;;7.82;3.53;;;;;;;;;;5076295;28;20516;-68
2024/01/17 12:47:53;;;;;;;4.18;2.70;;;;;;;;;;5045000;28;20052;-66
2024/01/17 12:50:19;;;;;;;5.38;3.17;;;;;;;;;;5047211;28;20044;-66
2024/01/17 12:52:44;;;;;;;6.55;3.72;;;;;;;;;;5041529;28;20044;-67
2024/01/17 12:55:09;;;;;;;8.05;3.67;;;;;;;;;;5043562;28;20048;-67
2024/01/17 12:57:35;;;;;;;6.35;3.70;;;;;;;;;;5042066;28;20049;-68
2024/01/17 13:00:07;;;;;;;6.68;3.92;;;;;;;;;;5048689;28;20029;-67
2024/01/17 13:02:33;;;;;;;6.22;3.42;;;;;;;;;;5048632;28;20078;-67
2024/01/17 13:05:08;;;;;;;6.53;2.85;;;;;;;;;;5048734;28;20041;-67
2024/01/17 13:07:33;;;;;;;5.32;3.15;;;;;;;;;;5051024;28;20056;-67
2024/01/17 13:09:59;;;;;;;6.28;3.55;;;;;;;;;;5047798;28;20017;-68
2024/01/17 13:12:24;;;;;;;7.78;3.75;;;;;;;;;;5082123;28;20381;-67
2024/01/17 13:14:49;;;;;;;6.65;3.58;;;;;;;;;;5052196;28;20029;-67
2024/01/17 13:17:15;;;;;;;7.40;4.22;;;;;;;;;;5052015;28;20492;-67
2024/01/17 13:19:41;;;;;;;7.53;3.65;;;;;;;;;;5051426;28;20460;-67
2024/01/17 13:22:06;;;;;;;7.97;4.65;;;;;;;;;;5049731;28;20047;-68
2024/01/17 13:24:32;;;;;;;8.05;3.67;;;;;;;;;;5050945;28;20041;-67
2024/01/17 13:26:58;;;;;;;9.10;4.78;;;;;;;;;;5051520;28;20025;-67
2024/01/17 13:29:23;;;;;;;7.72;5.00;;;;;;;;;;5050041;28;20090;-67
2024/01/17 13:31:48;;;;;;;9.30;5.00;;;;;;;;;;5051413;28;20033;-67
2024/01/17 13:34:14;;;;;;;8.07;4.82;;;;;;;;;;5051271;28;20039;-68
2024/01/17 13:36:40;;;;;;;9.80;4.63;;;;;;;;;;5046940;28;20037;-67
2024/01/17 13:39:08;;;;;;;7.95;4.68;;;;;;;;;;5050899;28;20025;-67
2024/01/17 13:41:33;;;;;;;9.95;4.32;;;;;;;;;;5050425;28;20087;-68
2024/01/17 13:43:59;;;;;;;7.72;4.70;;;;;;;;;;5048711;28;20041;-67
2024/01/17 13:46:26;;;;;;;15.85;5.07;;;;;;;;;;5049320;28;20525;-67
2024/01/17 13:48:51;;;;;;;7.72;5.00;;;;;;;;;;5049948;28;20041;-70
2024/01/17 13:51:17;;;;;;;9.13;4.50;;;;;;;;;;5050036;28;20403;-68
2024/01/17 13:53:42;;;;;;;7.07;4.35;;;;;;;;;;5051034;28;20040;-67
2024/01/17 13:56:10;;;;;;;7.10;4.93;;;;;;;;;;5050103;28;20041;-69
2024/01/17 13:58:37;;;;;;;10.45;4.90;;;;;;;;;;5047352;28;20040;-68
2024/01/17 14:01:04;;;;;;;7.45;3.97;;;;;;;;;;5049246;28;20024;-69
2024/01/17 14:03:30;;;;;;;8.07;4.28;;;;;;;;;;5045862;28;20268;-69
2024/01/17 14:05:55;;;;;;;7.32;4.30;;;;;;;;;;5048428;28;20511;-67
2024/01/17 14:08:21;;;;;;;4.75;3.03;;;;;;;;;;5049800;28;20040;-69
2024/01/17 14:10:46;;;;;;;11.10;4.28;;;;;;;;;;5050749;28;20021;-68
2024/01/17 14:13:13;;;;;;;8.32;5.15;;;;;;;;;;5049500;28;20033;-68
2024/01/17 14:15:40;;;;;;;9.07;3.85;;;;;;;;;;5049966;28;20037;-68
2024/01/17 14:18:05;;;;;;;7.22;2.88;;;;;;;;;;5081649;28;20044;-68
2024/01/17 14:20:31;;;;;;;9.27;4.82;;;;;;;;;;5049796;28;20574;-68
2024/01/17 14:22:56;;;;;;;7.78;3.70;;;;;;;;;;5048891;28;20064;-69
2024/01/17 14:25:22;;;;;;;8.80;5.07;;;;;;;;;;5049285;28;20073;-67
2024/01/17 14:27:48;;;;;;;11.27;5.25;;;;;;;;;;5050872;28;20051;-68
2024/01/17 14:30:13;;;;;;;11.73;4.43;;;;;;;;;;5065142;28;20109;-68
2024/01/17 14:32:40;;;;;;;11.45;3.83;;;;;;;;;;5049225;28;20037;-69
2024/01/17 14:35:07;;;;;;;7.70;3.90;;;;;;;;;;5033788;28;20089;-68
2024/01/17 14:37:36;;;;;;;8.90;4.47;;;;;;;;;;5046484;28;20079;-68